sensor_id;sensor_type;location;lat;lon;timestamp;temperature;humidity
14779;DHT22;7481;53.750;10.570;2022-08-01T00:02:28;18.40;99.90
14779;DHT22;7481;53.750;10.570;2022-08-01T00:05:15;18.30;99.90
14779;DHT22;7481;53.750;10.570;2022-08-01T00:08:02;20.00;99.90
14779;DHT22;7481;53.750;10.570;2022-08-01T00:10:49;18.40;99.90
14779;DHT22;7481;53.750;10.570;2022-08-01T00:13:36;18.40;99.90
14779;DHT22;7481;53.750;10.570;2022-08-01T00:16:23;18.40;99.90
14779;DHT22;7481;53.750;10.570;2022-08-01T00:19:10;18.30;99.90
14779;DHT22;7481;53.750;10.570;2022-08-01T00:21:57;18.30;99.90
14779;DHT22;7481;53.750;10.570;2022-08-01T00:24:44;18.30;99.90
14779;DHT22;7481;53.750;10.570;2022-08-01T00:27:31;18.30;99.90
14779;DHT22;7481;53.750;10.570;2022-08-01T00:30:23;18.30;99.90
14779;DHT22;7481;53.750;10.570;2022-08-01T00:33:10;18.30;99.90
14779;DHT22;7481;53.750;10.570;2022-08-01T00:35:57;18.30;99.90
14779;DHT22;7481;53.750;10.570;2022-08-01T00:38:44;18.30;99.90
14779;DHT22;7481;53.750;10.570;2022-08-01T00:41:31;18.30;99.90
14779;DHT22;7481;53.750;10.570;2022-08-01T00:44:18;18.40;99.90
14779;DHT22;7481;53.750;10.570;2022-08-01T00:47:06;18.30;99.90
14779;DHT22;7481;53.750;10.570;2022-08-01T00:49:53;18.30;99.90
14779;DHT22;7481;53.750;10.570;2022-08-01T00:52:40;18.40;99.90
14779;DHT22;7481;53.750;10.570;2022-08-01T00:55:28;18.40;99.90
14779;DHT22;7481;53.750;10.570;2022-08-01T00:58:15;18.40;99.90
14779;DHT22;7481;53.750;10.570;2022-08-01T01:01:03;18.30;99.90
14779;DHT22;7481;53.750;10.570;2022-08-01T01:03:54;18.30;99.90
14779;DHT22;7481;53.750;10.570;2022-08-01T01:07:01;18.30;99.90
14779;DHT22;7481;53.750;10.570;2022-08-01T01:10:12;18.30;99.90
14779;DHT22;7481;53.750;10.570;2022-08-01T01:13:09;18.30;99.90
14779;DHT22;7481;53.750;10.570;2022-08-01T01:16:05;18.40;99.90
14779;DHT22;7481;53.750;10.570;2022-08-01T01:18:57;18.40;99.90
14779;DHT22;7481;53.750;10.570;2022-08-01T01:24:45;18.40;99.90
14779;DHT22;7481;53.750;10.570;2022-08-01T01:30:59;18.40;99.90
14779;DHT22;7481;53.750;10.570;2022-08-01T01:33:48;18.40;99.90
14779;DHT22;7481;53.750;10.570;2022-08-01T01:36:38;18.60;99.90
14779;DHT22;7481;53.750;10.570;2022-08-01T01:39:27;18.40;99.90
14779;DHT22;7481;53.750;10.570;2022-08-01T01:42:17;18.40;99.90
14779;DHT22;7481;53.750;10.570;2022-08-01T01:45:05;18.40;99.90
14779;DHT22;7481;53.750;10.570;2022-08-01T01:47:53;18.40;99.90
14779;DHT22;7481;53.750;10.570;2022-08-01T01:50:42;18.40;99.90
14779;DHT22;7481;53.750;10.570;2022-08-01T01:53:33;18.40;99.90
14779;DHT22;7481;53.750;10.570;2022-08-01T01:56:22;18.40;99.90
14779;DHT22;7481;53.750;10.570;2022-08-01T01:59:10;18.40;99.90
14779;DHT22;7481;53.750;10.570;2022-08-01T02:02:02;18.40;99.90
14779;DHT22;7481;53.750;10.570;2022-08-01T02:04:53;18.40;99.90
14779;DHT22;7481;53.750;10.570;2022-08-01T02:07:40;18.40;99.90
14779;DHT22;7481;53.750;10.570;2022-08-01T02:10:29;18.50;99.90
14779;DHT22;7481;53.750;10.570;2022-08-01T02:13:16;18.50;99.90
14779;DHT22;7481;53.750;10.570;2022-08-01T02:16:08;18.50;99.90
14779;DHT22;7481;53.750;10.570;2022-08-01T02:18:57;18.40;99.90
14779;DHT22;7481;53.750;10.570;2022-08-01T02:22:13;18.40;99.90
14779;DHT22;7481;53.750;10.570;2022-08-01T02:28:07;18.40;99.90
14779;DHT22;7481;53.750;10.570;2022-08-01T02:31:06;18.40;99.90
14779;DHT22;7481;53.750;10.570;2022-08-01T02:33:58;18.30;99.90
14779;DHT22;7481;53.750;10.570;2022-08-01T02:36:49;18.40;99.90
14779;DHT22;7481;53.750;10.570;2022-08-01T02:39:38;18.40;99.90
14779;DHT22;7481;53.750;10.570;2022-08-01T02:42:26;18.30;99.90
14779;DHT22;7481;53.750;10.570;2022-08-01T02:45:16;18.30;99.90
14779;DHT22;7481;53.750;10.570;2022-08-01T02:48:09;18.30;99.90
14779;DHT22;7481;53.750;10.570;2022-08-01T02:51:00;18.30;99.90
14779;DHT22;7481;53.750;10.570;2022-08-01T02:53:51;18.40;99.90
14779;DHT22;7481;53.750;10.570;2022-08-01T02:56:40;18.40;99.90
14779;DHT22;7481;53.750;10.570;2022-08-01T02:59:29;18.40;99.90
14779;DHT22;7481;53.750;10.570;2022-08-01T03:02:20;18.30;99.90
14779;DHT22;7481;53.750;10.570;2022-08-01T03:05:11;18.30;99.90
14779;DHT22;7481;53.750;10.570;2022-08-01T03:07:59;18.30;99.90
14779;DHT22;7481;53.750;10.570;2022-08-01T03:10:51;18.30;99.90
14779;DHT22;7481;53.750;10.570;2022-08-01T03:13:41;18.40;99.90
14779;DHT22;7481;53.750;10.570;2022-08-01T03:16:29;18.30;99.90
14779;DHT22;7481;53.750;10.570;2022-08-01T03:19:19;18.30;99.90
14779;DHT22;7481;53.750;10.570;2022-08-01T03:22:08;18.30;99.90
14779;DHT22;7481;53.750;10.570;2022-08-01T03:24:57;18.30;99.90
14779;DHT22;7481;53.750;10.570;2022-08-01T03:27:47;18.30;99.90
14779;DHT22;7481;53.750;10.570;2022-08-01T03:30:37;18.40;99.90
14779;DHT22;7481;53.750;10.570;2022-08-01T03:33:26;18.30;99.90
14779;DHT22;7481;53.750;10.570;2022-08-01T03:36:14;18.20;99.90
14779;DHT22;7481;53.750;10.570;2022-08-01T03:39:03;18.30;99.90
14779;DHT22;7481;53.750;10.570;2022-08-01T03:41:57;18.30;99.90
14779;DHT22;7481;53.750;10.570;2022-08-01T03:44:58;18.20;99.90
14779;DHT22;7481;53.750;10.570;2022-08-01T03:47:47;18.30;99.90
14779;DHT22;7481;53.750;10.570;2022-08-01T03:50:41;18.30;99.90
14779;DHT22;7481;53.750;10.570;2022-08-01T03:53:30;18.20;99.90
14779;DHT22;7481;53.750;10.570;2022-08-01T03:56:19;18.30;99.90
14779;DHT22;7481;53.750;10.570;2022-08-01T03:59:09;18.30;99.90
14779;DHT22;7481;53.750;10.570;2022-08-01T04:01:56;18.30;99.90
14779;DHT22;7481;53.750;10.570;2022-08-01T04:04:44;18.30;99.90
14779;DHT22;7481;53.750;10.570;2022-08-01T04:07:33;18.30;99.90
14779;DHT22;7481;53.750;10.570;2022-08-01T04:10:23;18.30;99.90
14779;DHT22;7481;53.750;10.570;2022-08-01T04:13:12;19.60;99.90
14779;DHT22;7481;53.750;10.570;2022-08-01T04:15:59;18.30;99.90
14779;DHT22;7481;53.750;10.570;2022-08-01T04:18:47;18.30;99.90
14779;DHT22;7481;53.750;10.570;2022-08-01T04:21:34;18.30;99.90
14779;DHT22;7481;53.750;10.570;2022-08-01T04:24:22;18.30;99.90
14779;DHT22;7481;53.750;10.570;2022-08-01T04:27:13;18.30;99.90
14779;DHT22;7481;53.750;10.570;2022-08-01T04:30:02;18.30;99.90
14779;DHT22;7481;53.750;10.570;2022-08-01T04:32:50;18.40;99.90
14779;DHT22;7481;53.750;10.570;2022-08-01T04:35:42;18.30;99.90
14779;DHT22;7481;53.750;10.570;2022-08-01T04:38:52;18.40;99.90
14779;DHT22;7481;53.750;10.570;2022-08-01T04:41:39;18.40;99.90
14779;DHT22;7481;53.750;10.570;2022-08-01T04:44:27;18.50;99.90
14779;DHT22;7481;53.750;10.570;2022-08-01T04:47:18;18.50;99.90
14779;DHT22;7481;53.750;10.570;2022-08-01T04:50:06;18.50;99.90
14779;DHT22;7481;53.750;10.570;2022-08-01T04:52:54;18.50;99.90
14779;DHT22;7481;53.750;10.570;2022-08-01T04:55:41;18.50;99.90
14779;DHT22;7481;53.750;10.570;2022-08-01T04:58:28;18.50;99.90
14779;DHT22;7481;53.750;10.570;2022-08-01T05:01:15;18.50;99.90
14779;DHT22;7481;53.750;10.570;2022-08-01T05:04:02;18.40;99.90
14779;DHT22;7481;53.750;10.570;2022-08-01T05:06:49;18.30;99.90
14779;DHT22;7481;53.750;10.570;2022-08-01T05:09:36;18.30;99.90
14779;DHT22;7481;53.750;10.570;2022-08-01T05:12:24;18.40;99.90
14779;DHT22;7481;53.750;10.570;2022-08-01T05:15:11;18.40;99.90
14779;DHT22;7481;53.750;10.570;2022-08-01T05:18:01;18.40;99.90
14779;DHT22;7481;53.750;10.570;2022-08-01T05:20:48;18.40;99.90
14779;DHT22;7481;53.750;10.570;2022-08-01T05:23:35;18.40;99.90
14779;DHT22;7481;53.750;10.570;2022-08-01T05:26:29;18.50;99.90
14779;DHT22;7481;53.750;10.570;2022-08-01T05:29:17;18.60;99.90
14779;DHT22;7481;53.750;10.570;2022-08-01T05:32:04;18.80;99.90
14779;DHT22;7481;53.750;10.570;2022-08-01T05:34:52;18.90;99.90
14779;DHT22;7481;53.750;10.570;2022-08-01T05:37:39;19.10;99.90
14779;DHT22;7481;53.750;10.570;2022-08-01T05:40:26;19.10;99.90
14779;DHT22;7481;53.750;10.570;2022-08-01T05:43:13;19.20;99.90
14779;DHT22;7481;53.750;10.570;2022-08-01T05:46:00;19.20;99.90
14779;DHT22;7481;53.750;10.570;2022-08-01T05:48:48;19.20;99.90
14779;DHT22;7481;53.750;10.570;2022-08-01T05:51:35;19.30;99.90
14779;DHT22;7481;53.750;10.570;2022-08-01T05:54:22;19.30;99.90
14779;DHT22;7481;53.750;10.570;2022-08-01T05:57:09;19.40;99.90
14779;DHT22;7481;53.750;10.570;2022-08-01T05:59:58;19.40;99.90
14779;DHT22;7481;53.750;10.570;2022-08-01T06:02:45;19.50;99.90
14779;DHT22;7481;53.750;10.570;2022-08-01T06:05:32;19.50;99.90
14779;DHT22;7481;53.750;10.570;2022-08-01T06:08:19;19.50;99.90
14779;DHT22;7481;53.750;10.570;2022-08-01T06:11:06;19.50;99.90
14779;DHT22;7481;53.750;10.570;2022-08-01T06:13:53;19.40;99.90
14779;DHT22;7481;53.750;10.570;2022-08-01T06:16:40;19.30;99.90
14779;DHT22;7481;53.750;10.570;2022-08-01T06:19:27;19.20;99.90
14779;DHT22;7481;53.750;10.570;2022-08-01T06:22:14;19.20;99.90
14779;DHT22;7481;53.750;10.570;2022-08-01T06:25:01;19.20;99.90
14779;DHT22;7481;53.750;10.570;2022-08-01T06:27:48;19.00;99.90
14779;DHT22;7481;53.750;10.570;2022-08-01T06:30:36;19.00;99.90
14779;DHT22;7481;53.750;10.570;2022-08-01T06:33:23;18.90;99.90
14779;DHT22;7481;53.750;10.570;2022-08-01T06:36:10;20.00;99.90
14779;DHT22;7481;53.750;10.570;2022-08-01T06:38:57;18.90;99.90
14779;DHT22;7481;53.750;10.570;2022-08-01T06:41:44;18.90;99.90
14779;DHT22;7481;53.750;10.570;2022-08-01T06:44:33;18.90;99.90
14779;DHT22;7481;53.750;10.570;2022-08-01T06:47:20;18.80;99.90
14779;DHT22;7481;53.750;10.570;2022-08-01T06:50:09;18.80;99.90
14779;DHT22;7481;53.750;10.570;2022-08-01T06:52:57;18.80;99.90
14779;DHT22;7481;53.750;10.570;2022-08-01T06:55:44;18.80;99.90
14779;DHT22;7481;53.750;10.570;2022-08-01T06:58:31;18.70;99.90
14779;DHT22;7481;53.750;10.570;2022-08-01T07:01:19;18.50;99.90
14779;DHT22;7481;53.750;10.570;2022-08-01T07:04:06;18.60;99.90
14779;DHT22;7481;53.750;10.570;2022-08-01T07:06:53;18.60;99.90
14779;DHT22;7481;53.750;10.570;2022-08-01T07:09:40;18.70;99.90
14779;DHT22;7481;53.750;10.570;2022-08-01T07:12:29;18.70;99.90
14779;DHT22;7481;53.750;10.570;2022-08-01T07:15:16;18.80;99.90
14779;DHT22;7481;53.750;10.570;2022-08-01T07:18:03;18.70;99.90
14779;DHT22;7481;53.750;10.570;2022-08-01T07:20:51;18.70;99.90
14779;DHT22;7481;53.750;10.570;2022-08-01T07:23:38;18.70;99.90
14779;DHT22;7481;53.750;10.570;2022-08-01T07:26:31;19.70;99.90
14779;DHT22;7481;53.750;10.570;2022-08-01T07:29:18;18.80;99.90
14779;DHT22;7481;53.750;10.570;2022-08-01T07:32:05;18.80;99.90
14779;DHT22;7481;53.750;10.570;2022-08-01T07:34:53;18.90;99.90
14779;DHT22;7481;53.750;10.570;2022-08-01T07:37:40;18.90;99.90
14779;DHT22;7481;53.750;10.570;2022-08-01T07:40:35;18.90;99.90
14779;DHT22;7481;53.750;10.570;2022-08-01T07:43:22;18.90;99.90
14779;DHT22;7481;53.750;10.570;2022-08-01T07:46:09;18.90;99.90
14779;DHT22;7481;53.750;10.570;2022-08-01T07:48:56;18.90;99.90
14779;DHT22;7481;53.750;10.570;2022-08-01T07:51:43;18.90;99.90
14779;DHT22;7481;53.750;10.570;2022-08-01T07:54:50;18.90;99.90
14779;DHT22;7481;53.750;10.570;2022-08-01T07:57:38;19.00;99.90
14779;DHT22;7481;53.750;10.570;2022-08-01T08:00:25;19.00;99.90
14779;DHT22;7481;53.750;10.570;2022-08-01T08:03:14;19.00;99.90
14779;DHT22;7481;53.750;10.570;2022-08-01T08:06:01;18.90;99.90
14779;DHT22;7481;53.750;10.570;2022-08-01T08:08:48;18.90;99.90
14779;DHT22;7481;53.750;10.570;2022-08-01T08:11:35;18.90;99.90
14779;DHT22;7481;53.750;10.570;2022-08-01T08:14:22;18.80;99.90
14779;DHT22;7481;53.750;10.570;2022-08-01T08:17:18;18.80;99.90
14779;DHT22;7481;53.750;10.570;2022-08-01T08:20:06;18.80;99.90
14779;DHT22;7481;53.750;10.570;2022-08-01T08:22:56;18.80;99.90
14779;DHT22;7481;53.750;10.570;2022-08-01T08:25:45;18.80;99.90
14779;DHT22;7481;53.750;10.570;2022-08-01T08:28:32;18.90;99.90
14779;DHT22;7481;53.750;10.570;2022-08-01T08:31:19;19.00;99.90
14779;DHT22;7481;53.750;10.570;2022-08-01T08:34:27;19.10;99.90
14779;DHT22;7481;53.750;10.570;2022-08-01T08:37:14;19.10;99.90
14779;DHT22;7481;53.750;10.570;2022-08-01T08:40:03;19.20;99.90
14779;DHT22;7481;53.750;10.570;2022-08-01T08:42:50;19.50;99.90
14779;DHT22;7481;53.750;10.570;2022-08-01T08:45:38;19.90;99.90
14779;DHT22;7481;53.750;10.570;2022-08-01T08:48:45;20.10;99.90
14779;DHT22;7481;53.750;10.570;2022-08-01T08:51:34;20.60;99.90
14779;DHT22;7481;53.750;10.570;2022-08-01T08:54:25;21.10;99.90
14779;DHT22;7481;53.750;10.570;2022-08-01T08:57:19;21.30;99.90
14779;DHT22;7481;53.750;10.570;2022-08-01T09:00:07;21.10;99.90
14779;DHT22;7481;53.750;10.570;2022-08-01T09:02:56;21.00;99.90
14779;DHT22;7481;53.750;10.570;2022-08-01T09:05:43;20.80;99.90
14779;DHT22;7481;53.750;10.570;2022-08-01T09:08:31;20.50;99.90
14779;DHT22;7481;53.750;10.570;2022-08-01T09:11:19;20.50;99.90
14779;DHT22;7481;53.750;10.570;2022-08-01T09:14:14;20.60;99.90
14779;DHT22;7481;53.750;10.570;2022-08-01T09:17:07;20.60;99.90
14779;DHT22;7481;53.750;10.570;2022-08-01T09:19:55;20.60;99.90
14779;DHT22;7481;53.750;10.570;2022-08-01T09:22:45;20.60;99.90
14779;DHT22;7481;53.750;10.570;2022-08-01T09:25:50;20.50;99.90
14779;DHT22;7481;53.750;10.570;2022-08-01T09:28:38;20.20;99.90
14779;DHT22;7481;53.750;10.570;2022-08-01T09:31:42;19.90;99.90
14779;DHT22;7481;53.750;10.570;2022-08-01T09:34:33;19.80;99.90
14779;DHT22;7481;53.750;10.570;2022-08-01T09:37:30;19.60;99.90
14779;DHT22;7481;53.750;10.570;2022-08-01T09:40:23;19.50;99.90
14779;DHT22;7481;53.750;10.570;2022-08-01T09:43:11;19.50;99.90
14779;DHT22;7481;53.750;10.570;2022-08-01T09:46:11;19.50;99.90
14779;DHT22;7481;53.750;10.570;2022-08-01T09:49:03;19.70;99.90
14779;DHT22;7481;53.750;10.570;2022-08-01T09:51:57;19.80;99.90
14779;DHT22;7481;53.750;10.570;2022-08-01T09:54:56;20.10;99.90
14779;DHT22;7481;53.750;10.570;2022-08-01T09:57:55;21.40;99.90
14779;DHT22;7481;53.750;10.570;2022-08-01T10:00:42;22.40;99.90
14779;DHT22;7481;53.750;10.570;2022-08-01T10:03:31;22.60;99.90
14779;DHT22;7481;53.750;10.570;2022-08-01T10:06:21;22.40;99.90
14779;DHT22;7481;53.750;10.570;2022-08-01T10:09:14;22.20;99.90
14779;DHT22;7481;53.750;10.570;2022-08-01T10:12:02;22.40;99.90
14779;DHT22;7481;53.750;10.570;2022-08-01T10:14:50;22.60;99.90
14779;DHT22;7481;53.750;10.570;2022-08-01T10:17:39;23.40;99.90
14779;DHT22;7481;53.750;10.570;2022-08-01T10:20:37;24.20;99.90
14779;DHT22;7481;53.750;10.570;2022-08-01T10:23:33;24.80;99.90
14779;DHT22;7481;53.750;10.570;2022-08-01T10:26:29;24.80;99.90
14779;DHT22;7481;53.750;10.570;2022-08-01T10:29:20;24.80;99.90
14779;DHT22;7481;53.750;10.570;2022-08-01T10:32:27;25.10;99.90
14779;DHT22;7481;53.750;10.570;2022-08-01T10:35:15;25.40;99.90
14779;DHT22;7481;53.750;10.570;2022-08-01T10:38:24;25.60;99.90
14779;DHT22;7481;53.750;10.570;2022-08-01T10:41:12;25.90;99.90
14779;DHT22;7481;53.750;10.570;2022-08-01T10:44:02;26.00;99.90
14779;DHT22;7481;53.750;10.570;2022-08-01T10:46:54;25.90;99.90
14779;DHT22;7481;53.750;10.570;2022-08-01T10:49:47;26.30;99.90
14779;DHT22;7481;53.750;10.570;2022-08-01T10:52:36;26.60;99.90
14779;DHT22;7481;53.750;10.570;2022-08-01T10:55:25;26.60;99.90
14779;DHT22;7481;53.750;10.570;2022-08-01T10:58:12;26.10;99.90
14779;DHT22;7481;53.750;10.570;2022-08-01T11:01:23;26.00;99.90
14779;DHT22;7481;53.750;10.570;2022-08-01T11:04:13;26.20;99.90
14779;DHT22;7481;53.750;10.570;2022-08-01T11:07:12;26.40;99.90
14779;DHT22;7481;53.750;10.570;2022-08-01T11:10:04;26.50;99.90
14779;DHT22;7481;53.750;10.570;2022-08-01T11:13:00;26.50;99.90
14779;DHT22;7481;53.750;10.570;2022-08-01T11:15:50;26.80;99.90
14779;DHT22;7481;53.750;10.570;2022-08-01T11:19:04;26.80;99.90
14779;DHT22;7481;53.750;10.570;2022-08-01T11:27:36;26.60;99.90
14779;DHT22;7481;53.750;10.570;2022-08-01T11:30:26;26.70;99.90
14779;DHT22;7481;53.750;10.570;2022-08-01T11:33:14;26.90;99.90
14779;DHT22;7481;53.750;10.570;2022-08-01T11:41:48;27.00;99.90
14779;DHT22;7481;53.750;10.570;2022-08-01T11:44:48;27.00;99.90
14779;DHT22;7481;53.750;10.570;2022-08-01T11:47:49;27.00;99.90
14779;DHT22;7481;53.750;10.570;2022-08-01T11:50:37;27.00;99.90
14779;DHT22;7481;53.750;10.570;2022-08-01T11:53:24;26.90;99.90
14779;DHT22;7481;53.750;10.570;2022-08-01T11:56:12;27.00;99.90
14779;DHT22;7481;53.750;10.570;2022-08-01T11:59:03;27.10;99.90
14779;DHT22;7481;53.750;10.570;2022-08-01T12:02:01;27.10;99.90
14779;DHT22;7481;53.750;10.570;2022-08-01T12:04:53;27.10;99.90
14779;DHT22;7481;53.750;10.570;2022-08-01T12:07:42;27.00;99.90
14779;DHT22;7481;53.750;10.570;2022-08-01T12:10:33;26.90;99.90
14779;DHT22;7481;53.750;10.570;2022-08-01T12:13:42;27.10;99.90
14779;DHT22;7481;53.750;10.570;2022-08-01T12:16:30;26.50;99.90
14779;DHT22;7481;53.750;10.570;2022-08-01T12:19:21;26.30;99.90
14779;DHT22;7481;53.750;10.570;2022-08-01T12:22:13;26.40;99.90
14779;DHT22;7481;53.750;10.570;2022-08-01T12:25:16;26.10;99.90
14779;DHT22;7481;53.750;10.570;2022-08-01T12:28:06;26.30;99.90
14779;DHT22;7481;53.750;10.570;2022-08-01T12:30:54;26.50;99.90
14779;DHT22;7481;53.750;10.570;2022-08-01T12:33:41;26.70;99.90
14779;DHT22;7481;53.750;10.570;2022-08-01T12:36:28;27.00;99.90
14779;DHT22;7481;53.750;10.570;2022-08-01T12:39:16;27.00;99.90
14779;DHT22;7481;53.750;10.570;2022-08-01T12:42:08;26.70;99.90
14779;DHT22;7481;53.750;10.570;2022-08-01T12:44:57;26.20;99.90
14779;DHT22;7481;53.750;10.570;2022-08-01T12:47:45;26.00;99.90
14779;DHT22;7481;53.750;10.570;2022-08-01T12:50:33;25.50;99.90
14779;DHT22;7481;53.750;10.570;2022-08-01T12:53:20;24.90;99.90
14779;DHT22;7481;53.750;10.570;2022-08-01T12:56:09;24.50;99.90
14779;DHT22;7481;53.750;10.570;2022-08-01T12:58:57;24.50;99.90
14779;DHT22;7481;53.750;10.570;2022-08-01T13:01:45;24.80;99.90
14779;DHT22;7481;53.750;10.570;2022-08-01T13:04:51;25.30;99.90
14779;DHT22;7481;53.750;10.570;2022-08-01T13:07:44;25.60;99.90
14779;DHT22;7481;53.750;10.570;2022-08-01T13:10:32;25.60;99.90
14779;DHT22;7481;53.750;10.570;2022-08-01T13:13:19;25.60;99.90
14779;DHT22;7481;53.750;10.570;2022-08-01T13:16:17;25.60;99.90
14779;DHT22;7481;53.750;10.570;2022-08-01T13:19:44;25.50;99.90
14779;DHT22;7481;53.750;10.570;2022-08-01T13:22:36;25.70;99.90
14779;DHT22;7481;53.750;10.570;2022-08-01T13:25:24;25.60;99.90
14779;DHT22;7481;53.750;10.570;2022-08-01T13:28:18;25.60;99.90
14779;DHT22;7481;53.750;10.570;2022-08-01T13:31:08;25.80;99.90
14779;DHT22;7481;53.750;10.570;2022-08-01T13:33:57;25.50;99.90
14779;DHT22;7481;53.750;10.570;2022-08-01T13:36:46;25.40;99.90
14779;DHT22;7481;53.750;10.570;2022-08-01T13:39:35;25.50;99.90
14779;DHT22;7481;53.750;10.570;2022-08-01T13:42:29;25.50;99.90
14779;DHT22;7481;53.750;10.570;2022-08-01T13:45:16;26.00;99.90
14779;DHT22;7481;53.750;10.570;2022-08-01T13:48:08;25.30;99.90
14779;DHT22;7481;53.750;10.570;2022-08-01T13:51:04;25.40;99.90
14779;DHT22;7481;53.750;10.570;2022-08-01T13:54:07;25.30;99.90
14779;DHT22;7481;53.750;10.570;2022-08-01T13:56:55;25.30;99.90
14779;DHT22;7481;53.750;10.570;2022-08-01T13:59:42;25.40;99.90
14779;DHT22;7481;53.750;10.570;2022-08-01T14:02:29;25.40;99.90
14779;DHT22;7481;53.750;10.570;2022-08-01T14:05:16;25.40;99.90
14779;DHT22;7481;53.750;10.570;2022-08-01T14:08:03;25.40;99.90
14779;DHT22;7481;53.750;10.570;2022-08-01T14:10:50;25.40;99.90
14779;DHT22;7481;53.750;10.570;2022-08-01T14:13:38;25.10;99.90
14779;DHT22;7481;53.750;10.570;2022-08-01T14:16:32;24.90;99.90
14779;DHT22;7481;53.750;10.570;2022-08-01T14:19:19;24.70;99.90
14779;DHT22;7481;53.750;10.570;2022-08-01T14:22:24;24.60;99.90
14779;DHT22;7481;53.750;10.570;2022-08-01T14:25:12;24.60;99.90
14779;DHT22;7481;53.750;10.570;2022-08-01T14:28:09;24.60;99.90
14779;DHT22;7481;53.750;10.570;2022-08-01T14:30:57;24.50;99.90
14779;DHT22;7481;53.750;10.570;2022-08-01T14:33:44;24.30;99.90
14779;DHT22;7481;53.750;10.570;2022-08-01T14:36:31;24.30;99.90
14779;DHT22;7481;53.750;10.570;2022-08-01T14:39:24;24.40;99.90
14779;DHT22;7481;53.750;10.570;2022-08-01T14:42:11;24.40;99.90
14779;DHT22;7481;53.750;10.570;2022-08-01T14:44:58;24.50;99.90
14779;DHT22;7481;53.750;10.570;2022-08-01T14:47:45;24.50;99.90
14779;DHT22;7481;53.750;10.570;2022-08-01T14:50:33;24.40;99.90
14779;DHT22;7481;53.750;10.570;2022-08-01T14:53:20;24.20;99.90
14779;DHT22;7481;53.750;10.570;2022-08-01T14:56:07;24.10;99.90
14779;DHT22;7481;53.750;10.570;2022-08-01T14:58:54;24.00;99.90
14779;DHT22;7481;53.750;10.570;2022-08-01T15:01:41;23.90;99.90
14779;DHT22;7481;53.750;10.570;2022-08-01T15:04:28;23.80;99.90
14779;DHT22;7481;53.750;10.570;2022-08-01T15:07:18;23.80;99.90
14779;DHT22;7481;53.750;10.570;2022-08-01T15:10:05;23.70;99.90
14779;DHT22;7481;53.750;10.570;2022-08-01T15:12:52;23.70;99.40
14779;DHT22;7481;53.750;10.570;2022-08-01T15:15:39;23.50;99.90
14779;DHT22;7481;53.750;10.570;2022-08-01T15:18:27;23.40;99.90
14779;DHT22;7481;53.750;10.570;2022-08-01T15:21:14;23.50;99.90
14779;DHT22;7481;53.750;10.570;2022-08-01T15:24:22;23.50;99.90
14779;DHT22;7481;53.750;10.570;2022-08-01T15:27:09;23.50;99.90
14779;DHT22;7481;53.750;10.570;2022-08-01T15:29:56;23.40;99.90
14779;DHT22;7481;53.750;10.570;2022-08-01T15:32:43;23.40;99.90
14779;DHT22;7481;53.750;10.570;2022-08-01T15:35:30;23.40;99.90
14779;DHT22;7481;53.750;10.570;2022-08-01T15:38:17;23.30;99.90
14779;DHT22;7481;53.750;10.570;2022-08-01T15:41:05;23.20;99.90
14779;DHT22;7481;53.750;10.570;2022-08-01T15:43:52;23.00;99.90
14779;DHT22;7481;53.750;10.570;2022-08-01T15:46:42;23.00;99.90
14779;DHT22;7481;53.750;10.570;2022-08-01T15:49:29;22.90;99.90
14779;DHT22;7481;53.750;10.570;2022-08-01T15:52:16;22.80;99.90
14779;DHT22;7481;53.750;10.570;2022-08-01T15:55:08;22.80;99.90
14779;DHT22;7481;53.750;10.570;2022-08-01T15:57:55;22.70;99.90
14779;DHT22;7481;53.750;10.570;2022-08-01T16:00:42;22.60;99.90
14779;DHT22;7481;53.750;10.570;2022-08-01T16:03:29;22.50;99.90
14779;DHT22;7481;53.750;10.570;2022-08-01T16:06:16;22.50;99.90
14779;DHT22;7481;53.750;10.570;2022-08-01T16:09:04;22.50;99.90
14779;DHT22;7481;53.750;10.570;2022-08-01T16:11:52;22.50;99.90
14779;DHT22;7481;53.750;10.570;2022-08-01T16:14:39;22.70;99.90
14779;DHT22;7481;53.750;10.570;2022-08-01T16:17:26;22.50;99.90
14779;DHT22;7481;53.750;10.570;2022-08-01T16:20:13;20.80;99.90
14779;DHT22;7481;53.750;10.570;2022-08-01T16:23:00;22.50;99.90
14779;DHT22;7481;53.750;10.570;2022-08-01T16:25:47;22.40;99.90
14779;DHT22;7481;53.750;10.570;2022-08-01T16:28:34;22.30;99.90
14779;DHT22;7481;53.750;10.570;2022-08-01T16:31:21;22.10;99.90
14779;DHT22;7481;53.750;10.570;2022-08-01T16:34:27;22.10;99.90
14779;DHT22;7481;53.750;10.570;2022-08-01T16:37:15;22.00;99.90
14779;DHT22;7481;53.750;10.570;2022-08-01T16:40:02;21.80;99.90
14779;DHT22;7481;53.750;10.570;2022-08-01T16:42:49;21.60;99.90
14779;DHT22;7481;53.750;10.570;2022-08-01T16:45:36;21.50;99.90
14779;DHT22;7481;53.750;10.570;2022-08-01T16:48:28;21.40;99.90
14779;DHT22;7481;53.750;10.570;2022-08-01T16:51:15;21.30;99.90
14779;DHT22;7481;53.750;10.570;2022-08-01T16:54:02;21.30;99.90
14779;DHT22;7481;53.750;10.570;2022-08-01T16:57:09;21.30;99.90
14779;DHT22;7481;53.750;10.570;2022-08-01T16:59:57;21.20;99.90
14779;DHT22;7481;53.750;10.570;2022-08-01T17:02:44;21.30;99.90
14779;DHT22;7481;53.750;10.570;2022-08-01T17:05:32;21.30;99.90
14779;DHT22;7481;53.750;10.570;2022-08-01T17:08:19;21.30;99.90
14779;DHT22;7481;53.750;10.570;2022-08-01T17:11:06;21.20;99.90
14779;DHT22;7481;53.750;10.570;2022-08-01T17:13:53;21.20;99.90
14779;DHT22;7481;53.750;10.570;2022-08-01T17:16:41;21.20;99.90
14779;DHT22;7481;53.750;10.570;2022-08-01T17:19:28;21.10;99.90
14779;DHT22;7481;53.750;10.570;2022-08-01T17:22:19;21.10;99.90
14779;DHT22;7481;53.750;10.570;2022-08-01T17:25:06;20.90;99.90
14779;DHT22;7481;53.750;10.570;2022-08-01T17:28:01;20.80;99.90
14779;DHT22;7481;53.750;10.570;2022-08-01T17:30:48;20.70;99.90
14779;DHT22;7481;53.750;10.570;2022-08-01T17:33:35;20.70;99.90
14779;DHT22;7481;53.750;10.570;2022-08-01T17:36:32;20.70;99.90
14779;DHT22;7481;53.750;10.570;2022-08-01T17:39:19;20.60;99.90
14779;DHT22;7481;53.750;10.570;2022-08-01T17:42:24;20.50;99.90
14779;DHT22;7481;53.750;10.570;2022-08-01T17:45:15;20.50;99.90
14779;DHT22;7481;53.750;10.570;2022-08-01T17:48:14;20.30;99.90
14779;DHT22;7481;53.750;10.570;2022-08-01T17:51:03;20.20;99.90
14779;DHT22;7481;53.750;10.570;2022-08-01T17:53:52;20.10;99.90
14779;DHT22;7481;53.750;10.570;2022-08-01T17:56:43;20.00;99.90
14779;DHT22;7481;53.750;10.570;2022-08-01T17:59:31;19.90;99.90
14779;DHT22;7481;53.750;10.570;2022-08-01T18:02:18;19.90;99.90
14779;DHT22;7481;53.750;10.570;2022-08-01T18:05:06;19.90;99.90
14779;DHT22;7481;53.750;10.570;2022-08-01T18:07:56;19.70;99.90
14779;DHT22;7481;53.750;10.570;2022-08-01T18:10:48;19.70;99.90
14779;DHT22;7481;53.750;10.570;2022-08-01T18:13:35;19.80;99.90
14779;DHT22;7481;53.750;10.570;2022-08-01T18:16:27;19.50;99.90